Time;durP1;ratioP1;P1;durP2;ratioP2;P2;SDS_P1;SDS_P2;PMS_P1;PMS_P2;Temp;Humidity;BMP_temperature;BMP_pressure;BME280_temperature;BME280_humidity;BME280_pressure;Samples;Min_cycle;Max_cycle;Signal;HPM_P1;HPM_P2
2020/12/18 00:02:10;;;;;;;64.70;35.50;;;;;;;0.23;82.82;101582.80;1832922;77;21148;-76
2020/12/18 00:04:39;;;;;;;69.97;36.33;;;;;;;0.24;82.86;101589.70;1815278;78;21083;-75
2020/12/18 00:07:09;;;;;;;63.52;34.20;;;;;;;0.24;82.87;101585.80;1818711;77;21040;-75
2020/12/18 00:09:36;;;;;;;71.82;37.95;;;;;;;0.25;82.87;101588.81;1821926;77;20928;-76
2020/12/18 00:12:04;;;;;;;82.62;42.15;;;;;;;0.26;82.89;101585.33;1815974;79;23010;-76
2020/12/18 00:14:31;;;;;;;83.22;39.53;;;;;;;0.29;82.87;101589.19;1792710;79;21535;-75
2020/12/18 00:16:59;;;;;;;66.33;33.35;;;;;;;0.30;82.87;101585.70;1815841;79;21471;-75
2020/12/18 00:19:27;;;;;;;67.58;35.13;;;;;;;0.30;82.90;101584.41;1826698;77;21167;-75
2020/12/18 00:21:56;;;;;;;66.47;34.38;;;;;;;0.31;82.92;101590.02;1844629;77;21092;-74
2020/12/18 00:24:24;;;;;;;69.27;36.95;;;;;;;0.31;82.94;101586.12;1822800;77;22854;-76
2020/12/18 00:26:52;;;;;;;75.78;38.40;;;;;;;0.31;82.95;101592.61;1841307;77;21581;-76
2020/12/18 00:29:20;;;;;;;76.10;38.13;;;;;;;0.31;82.96;101584.82;1819922;77;21363;-76
2020/12/18 00:31:49;;;;;;;76.10;39.25;;;;;;;0.30;82.95;101583.11;1839755;77;21040;-73
2020/12/18 00:34:17;;;;;;;75.17;39.18;;;;;;;0.31;82.94;101579.63;1852265;77;21063;-76
2020/12/18 00:36:52;;;;;;;71.53;37.17;;;;;;;0.30;82.96;101577.91;1821045;77;22130;-76
2020/12/18 00:39:20;;;;;;;69.97;37.55;;;;;;;0.30;82.97;101577.05;1822200;77;21067;-74
2020/12/18 00:41:53;;;;;;;76.75;38.10;;;;;;;0.30;83.00;101570.11;1824283;77;21462;-75
2020/12/18 00:44:21;;;;;;;68.57;36.38;;;;;;;0.31;83.03;101565.33;1822882;77;21183;-75
2020/12/18 00:46:52;;;;;;;56.88;32.63;;;;;;;0.31;83.00;101573.13;1824400;77;21434;-75
2020/12/18 00:49:20;;;;;;;57.40;31.97;;;;;;;0.30;83.00;101566.22;1802466;79;24262;-76
2020/12/18 00:51:53;;;;;;;57.05;32.60;;;;;;;0.30;83.01;101558.87;1745139;82;21097;-76
2020/12/18 00:54:21;;;;;;;60.15;31.75;;;;;;;0.27;83.03;101558.45;1756789;80;21128;-76
2020/12/18 00:56:50;;;;;;;59.90;31.82;;;;;;;0.28;83.04;101563.62;1791659;79;21149;-75
2020/12/18 00:59:18;;;;;;;60.50;32.80;;;;;;;0.28;83.07;101558.87;1801170;79;21035;-75
2020/12/18 01:01:46;;;;;;;58.40;31.57;;;;;;;0.27;83.09;101559.75;1793181;79;21920;-76
2020/12/18 01:04:14;;;;;;;57.20;31.27;;;;;;;0.27;83.12;101554.11;1797501;79;21561;-75
2020/12/18 01:06:42;;;;;;;49.50;28.23;;;;;;;0.27;83.11;101558.45;1782835;79;21138;-75
2020/12/18 01:09:10;;;;;;;45.30;25.65;;;;;;;0.25;83.12;101564.12;1802697;79;21517;-75
2020/12/18 01:11:38;;;;;;;41.28;25.75;;;;;;;0.25;83.13;101556.33;1792668;79;21122;-75
2020/12/18 01:14:07;;;;;;;40.65;24.45;;;;;;;0.24;83.12;101552.02;1779128;79;24215;-74
2020/12/18 01:16:36;;;;;;;32.63;20.60;;;;;;;0.22;83.10;101556.40;1778209;79;21086;-76
2020/12/18 01:19:05;;;;;;;41.05;25.30;;;;;;;0.21;83.10;101545.16;1806024;79;21106;-76
2020/12/18 01:21:36;;;;;;;39.70;24.07;;;;;;;0.19;83.10;101544.73;1797385;79;21149;-74
2020/12/18 01:24:04;;;;;;;40.43;23.98;;;;;;;0.19;83.12;101543.03;1778271;79;21158;-75
2020/12/18 01:26:32;;;;;;;37.70;22.17;;;;;;;0.19;83.10;101539.13;1777442;80;22053;-75
2020/12/18 01:29:00;;;;;;;30.85;18.45;;;;;;;0.19;83.10;101539.13;1783587;79;21046;-75
2020/12/18 01:31:28;;;;;;;31.45;19.95;;;;;;;0.18;83.09;101539.98;1790137;79;21031;-75
2020/12/18 01:33:57;;;;;;;36.73;22.67;;;;;;;0.17;83.06;101540.02;1809502;79;21066;-75
2020/12/18 01:36:26;;;;;;;35.73;22.87;;;;;;;0.16;83.07;101540.91;1785361;79;21086;-75
2020/12/18 01:38:56;;;;;;;35.95;22.45;;;;;;;0.16;83.08;101538.31;1788707;79;22942;-75
2020/12/18 01:41:24;;;;;;;39.35;23.62;;;;;;;0.17;83.12;101530.48;1809523;79;21119;-75
2020/12/18 01:43:52;;;;;;;39.85;25.17;;;;;;;0.20;83.13;101540.84;1806844;79;20964;-76
2020/12/18 01:46:20;;;;;;;43.38;27.40;;;;;;;0.21;83.12;101532.16;1777520;80;21082;-75
2020/12/18 01:48:50;;;;;;;32.70;20.65;;;;;;;0.22;83.12;101536.91;1783146;79;21106;-76
2020/12/18 01:51:17;;;;;;;32.25;21.17;;;;;;;0.23;83.11;101538.63;1809493;79;22047;-76
2020/12/18 01:53:47;;;;;;;33.13;21.27;;;;;;;0.19;83.09;101532.64;1754040;80;21486;-75
2020/12/18 01:56:37;;;;;;;37.88;23.10;;;;;;;0.19;83.06;101533.94;1873625;75;29040;-76
2020/12/18 01:59:06;;;;;;;39.58;23.52;;;;;;;0.15;83.08;101540.50;1824140;77;21312;-74
2020/12/18 02:01:56;;;;;;;37.38;22.07;;;;;;;0.19;83.08;101539.55;1862799;75;29064;-76
2020/12/18 02:04:35;;;;;;;35.98;22.50;;;;;;;0.15;83.07;101545.69;1839395;78;21049;-74
2020/12/18 02:07:05;;;;;;;35.60;21.87;;;;;;;0.14;83.06;101535.74;1808695;79;22815;-75
2020/12/18 02:09:35;;;;;;;37.35;22.13;;;;;;;0.15;83.07;101535.30;1807704;78;21087;-74
2020/12/18 02:12:05;;;;;;;40.67;24.45;;;;;;;0.16;83.07;101537.01;1811036;78;21049;-77
2020/12/18 02:14:36;;;;;;;34.20;20.45;;;;;;;0.16;83.09;101533.97;1808702;78;21071;-75
2020/12/18 02:17:04;;;;;;;38.02;22.98;;;;;;;0.15;83.10;101540.05;1808735;78;21048;-75
2020/12/18 02:19:35;;;;;;;36.05;21.37;;;;;;;0.14;83.12;101540.94;1808352;78;22528;-75
2020/12/18 02:22:13;;;;;;;51.05;29.55;;;;;;;0.16;83.14;101546.95;1781263;80;21077;-75
2020/12/18 02:24:49;;;;;;;68.52;38.48;;;;;;;0.17;83.15;101547.81;1782326;79;21141;-77
2020/12/18 02:27:18;;;;;;;54.83;33.65;;;;;;;0.17;83.12;101540.02;1744748;80;21167;-74
2020/12/18 02:29:48;;;;;;;58.15;34.23;;;;;;;0.16;83.12;101537.87;1724412;81;21630;-75
2020/12/18 02:32:16;;;;;;;46.15;27.42;;;;;;;0.17;83.09;101540.02;1728422;81;21907;-75
2020/12/18 02:34:46;;;;;;;41.53;25.23;;;;;;;0.16;83.10;101540.91;1721064;82;21117;-77
2020/12/18 02:37:18;;;;;;;44.08;24.90;;;;;;;0.15;83.09;101542.65;1722112;81;26812;-77
2020/12/18 02:39:46;;;;;;;44.30;26.35;;;;;;;0.17;83.10;101541.31;1745966;82;21049;-75
2020/12/18 02:42:15;;;;;;;41.98;25.75;;;;;;;0.18;83.11;101541.73;1748960;81;21057;-74
2020/12/18 02:44:47;;;;;;;46.48;25.92;;;;;;;0.18;83.13;101546.48;1751321;82;22062;-75
2020/12/18 02:47:49;;;;;;;46.68;27.52;;;;;;;0.19;83.12;101544.73;1868118;76;28984;-76
2020/12/18 02:50:19;;;;;;;45.80;26.45;;;;;;;0.12;83.11;101550.95;1828009;77;21102;-75
2020/12/18 02:52:55;;;;;;;47.15;26.42;;;;;;;0.11;83.10;101551.39;1785524;80;22055;-75
2020/12/18 02:55:51;;;;;;;45.00;26.80;;;;;;;0.16;83.13;101539.16;1858917;76;29499;-76
2020/12/18 02:58:21;;;;;;;49.83;27.22;;;;;;;0.13;83.14;101548.77;1806155;79;21060;-76
2020/12/18 03:00:52;;;;;;;48.13;27.15;;;;;;;0.12;83.14;101544.02;1814782;78;21056;-76
2020/12/18 03:03:21;;;;;;;49.38;28.92;;;;;;;0.14;83.13;101551.77;1836424;78;21083;-76
2020/12/18 03:05:51;;;;;;;54.38;31.10;;;;;;;0.13;83.14;101554.81;1820809;77;21080;-76
2020/12/18 03:08:23;;;;;;;58.68;31.05;;;;;;;0.14;83.15;101553.08;1808248;78;21150;-76
2020/12/18 03:10:51;;;;;;;66.30;34.92;;;;;;;0.13;83.14;101553.96;1808651;78;21073;-76
2020/12/18 03:13:19;;;;;;;63.10;34.10;;;;;;;0.15;83.15;101555.64;1811419;78;22046;-74
2020/12/18 03:15:47;;;;;;;60.88;33.40;;;;;;;0.16;83.15;101551.30;1784479;79;21159;-75
2020/12/18 03:18:26;;;;;;;63.30;34.13;;;;;;;0.16;83.18;101546.10;1807505;79;21139;-76
2020/12/18 03:20:55;;;;;;;59.13;31.15;;;;;;;0.15;83.17;101549.59;1793046;78;21115;-77
2020/12/18 03:23:41;;;;;;;56.33;31.87;;;;;;;0.15;83.17;101540.50;1816357;78;21296;-76
2020/12/18 03:26:11;;;;;;;51.20;27.35;;;;;;;0.14;83.16;101540.08;1834145;78;22114;-77
2020/12/18 03:28:40;;;;;;;49.70;29.07;;;;;;;0.13;83.18;101535.77;1830352;77;21061;-76
2020/12/18 03:31:08;;;;;;;46.08;27.87;;;;;;;0.12;83.18;101537.96;1806766;78;21072;-77
2020/12/18 03:33:37;;;;;;;42.60;26.62;;;;;;;0.11;83.19;101538.41;1787233;79;21143;-76
2020/12/18 03:36:15;;;;;;;45.35;26.10;;;;;;;0.15;83.18;101538.75;1873506;75;29042;-76
2020/12/18 03:38:42;;;;;;;42.53;23.98;;;;;;;0.10;83.17;101531.95;1841587;78;21057;-76
2020/12/18 03:41:10;;;;;;;35.40;22.67;;;;;;;0.10;83.18;101535.84;1810848;78;21980;-75
2020/12/18 03:43:38;;;;;;;39.90;24.18;;;;;;;0.08;83.17;101533.69;1808487;79;21135;-76
2020/12/18 03:46:07;;;;;;;44.20;25.20;;;;;;;0.05;83.15;101532.45;1823259;78;21163;-75
2020/12/18 03:48:55;;;;;;;37.40;22.32;;;;;;;0.06;83.19;101519.43;1885476;76;29525;-75
2020/12/18 03:51:24;;;;;;;40.43;24.18;;;;;;;0.01;83.18;101535.55;1821165;77;21030;-75
2020/12/18 03:53:53;;;;;;;42.38;25.62;;;;;;;-0.01;83.21;101523.87;1820164;77;22051;-76
2020/12/18 03:56:23;;;;;;;44.00;25.43;;;;;;;-0.01;83.21;101522.56;1841074;77;21086;-75
2020/12/18 03:58:55;;;;;;;42.53;25.57;;;;;;;-0.01;83.23;101527.77;1847754;77;21034;-75
2020/12/18 04:01:42;;;;;;;44.43;30.63;;;;;;;0.04;83.26;101515.16;1861774;75;28290;-76
2020/12/18 04:04:10;;;;;;;38.45;25.05;;;;;;;0.06;83.26;101519.88;1844890;77;21122;-75
2020/12/18 04:06:42;;;;;;;35.80;23.27;;;;;;;0.11;83.21;101519.37;1844334;77;21868;-76
2020/12/18 04:09:10;;;;;;;44.98;26.40;;;;;;;0.07;83.19;101518.55;1821953;78;21054;-76
2020/12/18 04:11:41;;;;;;;35.78;23.87;;;;;;;0.03;83.19;101525.13;1831763;77;21077;-75
2020/12/18 04:14:38;;;;;;;44.53;25.77;;;;;;;0.05;83.22;101519.46;1873553;75;29555;-75
2020/12/18 04:17:07;;;;;;;35.73;23.75;;;;;;;-0.02;83.24;101526.05;1818968;78;21135;-75
2020/12/18 04:19:35;;;;;;;41.10;25.95;;;;;;;-0.03;83.26;101524.78;1825632;78;24196;-78
2020/12/18 04:22:04;;;;;;;35.17;24.72;;;;;;;-0.04;83.26;101523.93;1823077;77;22589;-76
2020/12/18 04:24:50;;;;;;;38.50;27.77;;;;;;;-0.05;83.26;101530.45;1841462;78;21166;-75
2020/12/18 04:27:18;;;;;;;39.65;26.77;;;;;;;-0.06;83.26;101528.74;1837389;77;21198;-74
2020/12/18 04:29:47;;;;;;;36.03;23.45;;;;;;;-0.06;83.31;101531.34;1810467;78;21068;-75
2020/12/18 04:32:15;;;;;;;36.98;25.97;;;;;;;-0.06;83.29;101533.50;1808359;79;22166;-74
2020/12/18 04:34:44;;;;;;;29.75;20.72;;;;;;;-0.07;83.29;101542.17;1777984;79;21115;-74
2020/12/18 04:37:28;;;;;;;33.73;23.42;;;;;;;-0.10;83.28;101535.71;1806524;79;21131;-74
2020/12/18 04:40:08;;;;;;;31.23;22.98;;;;;;;-0.11;83.30;101535.74;1702820;83;21478;-75
2020/12/18 04:42:37;;;;;;;32.28;22.00;;;;;;;-0.12;83.32;101541.38;1692643;84;21095;-75
2020/12/18 04:45:05;;;;;;;28.23;20.23;;;;;;;-0.12;83.33;101536.19;1645337;83;22084;-74
2020/12/18 04:47:40;;;;;;;27.98;19.98;;;;;;;-0.16;83.31;101537.13;1695307;83;21565;-75
2020/12/18 04:50:09;;;;;;;24.50;17.70;;;;;;;-0.17;83.31;101548.41;1681323;83;21104;-75
2020/12/18 04:52:38;;;;;;;25.35;18.17;;;;;;;-0.19;83.31;101541.09;1702561;83;21151;-74
2020/12/18 04:55:07;;;;;;;25.60;16.93;;;;;;;-0.22;83.31;101543.71;1692755;84;21050;-74
2020/12/18 04:57:53;;;;;;;23.32;17.25;;;;;;;-0.22;83.30;101548.05;1701789;83;21604;-73
2020/12/18 05:00:22;;;;;;;26.35;18.02;;;;;;;-0.25;83.31;101548.97;1679444;84;21166;-74
2020/12/18 05:03:09;;;;;;;25.30;21.03;;;;;;;-0.23;83.29;101549.79;1871712;76;27820;-79
2020/12/18 05:05:38;;;;;;;25.40;18.65;;;;;;;-0.22;83.25;101550.20;1776090;80;21050;-79
2020/12/18 05:08:07;;;;;;;22.73;17.30;;;;;;;-0.17;83.22;101552.74;1848729;77;22072;-81
2020/12/18 05:10:36;;;;;;;26.80;19.75;;;;;;;-0.21;83.22;101551.91;1776667;80;21086;-84
2020/12/18 05:13:17;;;;;;;25.00;18.12;;;;;;;-0.21;83.20;101550.61;1891641;76;29046;-86
2020/12/18 05:15:47;;;;;;;27.27;18.55;;;;;;;-0.28;83.21;101560.70;1861903;77;21056;-88
2020/12/18 05:18:16;;;;;;;28.77;20.77;;;;;;;-0.28;83.21;101571.09;1835899;77;22145;-82
2020/12/18 05:20:46;;;;;;;26.12;19.65;;;;;;;-0.30;83.22;101555.95;1844553;77;21073;-79
2020/12/18 05:23:40;;;;;;;28.30;22.75;;;;;;;-0.26;83.27;101562.83;1861654;76;28053;-76
2020/12/18 05:26:10;;;;;;;27.45;18.55;;;;;;;-0.24;83.24;101567.55;1816075;79;21148;-81
2020/12/18 05:28:47;;;;;;;23.42;17.62;;;;;;;-0.19;83.21;101571.36;1839116;77;22047;-77
2020/12/18 05:31:18;;;;;;;26.17;19.00;;;;;;;-0.21;83.20;101570.09;1816977;79;21064;-79
2020/12/18 05:34:06;;;;;;;26.97;19.42;;;;;;;-0.21;83.21;101571.39;1818341;79;21046;-86
2020/12/18 05:36:53;;;;;;;26.47;20.30;;;;;;;-0.20;83.24;101566.61;1868481;75;28336;-76
2020/12/18 05:39:22;;;;;;;42.17;29.50;;;;;;;-0.19;83.24;101574.84;1820310;78;21599;-76
2020/12/18 05:41:59;;;;;;;40.78;27.15;;;;;;;-0.15;83.17;101573.89;1823887;78;22119;-74
2020/12/18 05:44:30;;;;;;;42.50;30.23;;;;;;;-0.16;83.18;101583.02;1793481;79;21196;-74
2020/12/18 05:47:09;;;;;;;102.35;69.20;;;;;;;-0.16;83.19;101569.59;1863705;75;29078;-74
2020/12/18 05:49:40;;;;;;;40.92;30.27;;;;;;;-0.20;83.18;101582.63;1816974;77;21066;-72
2020/12/18 05:52:21;;;;;;;28.95;21.27;;;;;;;-0.18;83.20;101580.89;1859605;76;29035;-72
2020/12/18 05:54:50;;;;;;;33.18;24.95;;;;;;;-0.24;83.21;101586.17;1824013;78;21142;-72
2020/12/18 05:57:18;;;;;;;82.75;63.33;;;;;;;-0.27;83.22;101581.89;1827182;77;22087;-73
2020/12/18 05:59:48;;;;;;;39.15;28.27;;;;;;;-0.29;83.23;101587.52;1825654;78;21088;-71
2020/12/18 06:02:18;;;;;;;27.75;20.37;;;;;;;-0.29;83.24;101582.33;1832273;77;21550;-72
2020/12/18 06:04:59;;;;;;;25.02;18.75;;;;;;;-0.25;83.25;101581.86;1873506;75;29125;-72
2020/12/18 06:07:28;;;;;;;24.05;15.83;;;;;;;-0.31;83.24;101585.39;1836008;78;21036;-72
2020/12/18 06:10:00;;;;;;;22.75;16.35;;;;;;;-0.28;83.26;101591.86;1836813;77;22073;-72
2020/12/18 06:12:30;;;;;;;21.73;16.12;;;;;;;-0.30;83.24;101585.36;1838867;78;21085;-72
2020/12/18 06:14:58;;;;;;;17.57;12.75;;;;;;;-0.30;83.25;101585.36;1841491;78;21036;-72
2020/12/18 06:17:30;;;;;;;25.05;15.98;;;;;;;-0.26;83.25;101593.13;1841483;78;21479;-72
2020/12/18 06:20:00;;;;;;;57.30;27.15;;;;;;;-0.28;83.23;101589.27;1811089;78;21040;-72
2020/12/18 06:22:29;;;;;;;30.37;16.45;;;;;;;-0.28;83.20;101591.00;1811792;78;22043;-72
2020/12/18 06:25:04;;;;;;;32.90;18.15;;;;;;;-0.26;83.20;101591.83;1840226;77;21154;-71
2020/12/18 06:28:03;;;;;;;27.55;17.65;;;;;;;-0.23;83.19;101597.83;1839302;76;29230;-72
2020/12/18 06:30:39;;;;;;;29.72;17.92;;;;;;;-0.27;83.18;101602.66;1775932;79;21617;-75
2020/12/18 06:33:50;;;;;;;41.30;22.93;;;;;;;-0.26;83.16;101600.48;1783978;79;22890;-71
2020/12/18 06:36:57;;;;;;;24.92;17.35;;;;;;;-0.23;83.15;101599.13;1878549;75;29094;-71
2020/12/18 06:39:36;;;;;;;18.73;12.85;;;;;;;-0.26;83.13;101600.48;1823634;78;21063;-75
2020/12/18 06:42:34;;;;;;;26.65;17.48;;;;;;;-0.21;83.15;101605.14;1873509;75;29238;-75
2020/12/18 06:45:13;;;;;;;29.15;16.70;;;;;;;-0.25;83.10;101604.78;1768268;78;21064;-77
2020/12/18 06:47:55;;;;;;;23.90;16.87;;;;;;;-0.24;83.07;101602.60;1736792;78;21590;-75
2020/12/18 06:50:41;;;;;;;24.82;19.12;;;;;;;-0.25;83.06;101599.59;1841525;77;21048;-76
2020/12/18 06:53:18;;;;;;;34.88;25.70;;;;;;;-0.20;83.03;101600.36;1866455;75;29070;-74
2020/12/18 06:55:50;;;;;;;23.42;17.30;;;;;;;-0.24;83.01;101608.23;1791489;79;21143;-76
2020/12/18 06:58:37;;;;;;;22.15;17.77;;;;;;;-0.19;83.00;101609.89;1855095;76;27744;-74
2020/12/18 07:01:04;;;;;;;32.50;24.60;;;;;;;-0.16;82.97;101611.58;1829910;78;21084;-75
2020/12/18 07:03:45;;;;;;;37.90;30.00;;;;;;;-0.12;82.89;101614.53;1841516;77;22049;-75
2020/12/18 07:06:23;;;;;;;24.85;18.77;;;;;;;-0.14;82.84;101613.70;1841521;78;21056;-74
2020/12/18 07:08:51;;;;;;;21.97;13.72;;;;;;;-0.17;82.80;101617.22;1841635;78;21039;-75
2020/12/18 07:11:21;;;;;;;24.40;18.12;;;;;;;-0.18;82.76;101614.20;1818650;78;21056;-74
2020/12/18 07:13:51;;;;;;;25.72;18.40;;;;;;;-0.19;82.72;101611.20;1807717;79;21067;-75
2020/12/18 07:16:26;;;;;;;26.65;22.10;;;;;;;-0.18;82.71;101609.45;1808501;78;21889;-76
2020/12/18 07:18:58;;;;;;;17.82;13.85;;;;;;;-0.19;82.66;101614.20;1755685;79;21596;-74
2020/12/18 07:21:25;;;;;;;22.87;15.98;;;;;;;-0.20;82.64;101609.89;1808502;78;21200;-74
2020/12/18 07:23:53;;;;;;;23.57;14.93;;;;;;;-0.23;82.58;101603.45;1808419;79;22455;-70
2020/12/18 07:26:21;;;;;;;19.77;15.15;;;;;;;-0.24;82.57;101606.50;1747075;82;21065;-78
2020/12/18 07:28:49;;;;;;;21.10;15.50;;;;;;;-0.23;82.55;101609.50;1752436;80;22080;-79
2020/12/18 07:31:24;;;;;;;20.12;14.55;;;;;;;-0.23;82.51;101618.59;1751609;80;21133;-76
2020/12/18 07:33:58;;;;;;;28.57;16.77;;;;;;;-0.24;82.47;101609.09;1782185;80;21061;-73
2020/12/18 07:36:30;;;;;;;30.30;17.55;;;;;;;-0.24;82.44;101606.50;1773283;80;21112;-71
2020/12/18 07:38:58;;;;;;;24.63;17.57;;;;;;;-0.23;82.43;101608.20;1762785;80;21060;-75
2020/12/18 07:41:29;;;;;;;41.05;21.15;;;;;;;-0.22;82.39;101609.06;1754899;80;22041;-73
2020/12/18 07:44:07;;;;;;;41.77;20.52;;;;;;;-0.21;82.40;101609.03;1773280;79;22071;-79
2020/12/18 07:46:35;;;;;;;53.33;24.77;;;;;;;-0.19;82.36;101605.11;1752071;80;21115;-79
2020/12/18 07:49:12;;;;;;;31.65;18.60;;;;;;;-0.20;82.29;101613.34;1752105;82;21128;-77
2020/12/18 07:51:42;;;;;;;35.90;21.93;;;;;;;-0.21;82.24;101611.62;1752053;82;21177;-80
2020/12/18 07:54:12;;;;;;;32.80;18.37;;;;;;;-0.21;82.21;101615.52;1772053;80;21842;-81
2020/12/18 07:56:40;;;;;;;33.33;20.68;;;;;;;-0.21;82.16;101614.67;1725917;80;21354;-78
2020/12/18 07:59:11;;;;;;;34.75;23.07;;;;;;;-0.21;82.14;101614.67;1780100;80;21689;-78
2020/12/18 08:01:41;;;;;;;30.25;20.15;;;;;;;-0.21;82.10;101614.67;1778238;80;21487;-73
2020/12/18 08:04:11;;;;;;;37.35;25.50;;;;;;;-0.21;81.99;101618.56;1778724;80;21128;-71
2020/12/18 08:06:42;;;;;;;32.78;23.80;;;;;;;-0.24;81.97;101613.43;1775118;78;22062;-72
2020/12/18 08:09:16;;;;;;;21.77;16.50;;;;;;;-0.24;81.94;101622.07;1764972;78;21484;-75
2020/12/18 08:11:52;;;;;;;22.65;16.75;;;;;;;-0.22;81.92;101616.85;1766336;80;21156;-73
2020/12/18 08:14:22;;;;;;;21.45;15.65;;;;;;;-0.21;81.91;101617.27;1767754;80;21484;-73
2020/12/18 08:16:53;;;;;;;24.15;16.97;;;;;;;-0.17;81.88;101619.81;1759917;80;21469;-72
2020/12/18 08:19:21;;;;;;;26.20;18.62;;;;;;;-0.15;81.85;101614.14;1771316;78;22192;-73
2020/12/18 08:21:49;;;;;;;27.70;18.98;;;;;;;-0.13;81.83;101618.87;1744737;80;21088;-73
2020/12/18 08:27:21;;;;;;;31.05;21.20;;;;;;;0.05;81.87;101607.78;1852978;76;29621;-72
2020/12/18 08:29:48;;;;;;;20.88;14.78;;;;;;;0.08;81.89;101598.19;1805609;78;21475;-73
2020/12/18 08:32:29;;;;;;;23.42;15.32;;;;;;;0.13;81.87;101590.33;1794377;78;22071;-73
2020/12/18 08:35:01;;;;;;;25.30;19.00;;;;;;;0.19;81.81;101592.80;1740979;81;21196;-71
2020/12/18 08:37:28;;;;;;;30.30;19.98;;;;;;;0.20;81.63;101595.84;1756406;81;21180;-71
2020/12/18 08:39:56;;;;;;;28.17;19.75;;;;;;;0.19;81.51;101594.99;1745912;82;21495;-71
2020/12/18 08:42:24;;;;;;;29.07;20.27;;;;;;;0.22;81.42;101594.93;1726372;82;21068;-73
2020/12/18 08:44:51;;;;;;;37.35;24.60;;;;;;;0.25;81.32;101597.47;1727771;81;21953;-73
2020/12/18 08:47:24;;;;;;;35.33;24.52;;;;;;;0.27;81.23;101593.53;1717903;83;21183;-71
2020/12/18 08:49:54;;;;;;;22.85;15.32;;;;;;;0.33;81.22;101595.19;1740898;81;21156;-73
2020/12/18 08:52:28;;;;;;;28.77;19.15;;;;;;;0.37;81.14;101592.48;1744760;81;21128;-71
2020/12/18 08:55:04;;;;;;;49.45;27.52;;;;;;;0.39;81.03;101593.78;1741376;80;21149;-74
2020/12/18 08:57:33;;;;;;;48.80;27.45;;;;;;;0.40;80.82;101599.39;1749033;81;21914;-74
2020/12/18 09:00:18;;;;;;;40.00;24.25;;;;;;;0.39;80.62;101592.05;1742484;80;21124;-73
2020/12/18 09:02:56;;;;;;;30.23;21.15;;;;;;;0.40;80.45;101594.20;1733524;80;21117;-75
2020/12/18 09:05:30;;;;;;;24.75;17.40;;;;;;;0.40;80.30;101578.60;1737554;81;21069;-74
2020/12/18 09:08:07;;;;;;;21.17;16.42;;;;;;;0.41;80.21;101579.02;1750188;80;21053;-71
2020/12/18 09:10:51;;;;;;;22.95;15.08;;;;;;;0.42;80.15;101581.58;1740865;81;21085;-76
2020/12/18 09:13:29;;;;;;;16.75;12.20;;;;;;;0.42;79.97;101589.37;1760956;80;21129;-80
2020/12/18 09:16:02;;;;;;;21.23;15.15;;;;;;;0.37;79.74;101587.29;1743160;81;21121;-79
2020/12/18 09:18:38;;;;;;;22.27;16.17;;;;;;;0.33;79.59;101591.28;1755438;80;21142;-76
2020/12/18 09:21:17;;;;;;;13.05;9.63;;;;;;;0.26;79.47;101589.22;1743535;80;21117;-80
2020/12/18 09:23:46;;;;;;;19.85;15.05;;;;;;;0.23;79.44;101591.88;1753222;81;23107;-75
2020/12/18 09:26:28;;;;;;;16.32;12.98;;;;;;;0.19;79.42;101588.49;1742370;81;21568;-79
2020/12/18 09:28:57;;;;;;;19.50;15.30;;;;;;;0.17;79.43;101585.04;1771657;79;21128;-79
2020/12/18 09:31:26;;;;;;;19.50;15.70;;;;;;;0.17;79.43;101580.29;1755553;79;21085;-77
2020/12/18 09:33:54;;;;;;;20.43;15.35;;;;;;;0.17;79.43;101573.80;1756618;80;21053;-81
2020/12/18 09:36:24;;;;;;;15.55;11.93;;;;;;;0.20;79.40;101576.36;1757832;81;21906;-76
2020/12/18 09:38:52;;;;;;;17.70;12.93;;;;;;;0.19;79.36;101572.91;1744267;80;21555;-78
2020/12/18 09:41:21;;;;;;;19.70;14.87;;;;;;;0.18;79.25;101576.36;1747442;80;21178;-81
2020/12/18 09:43:49;;;;;;;17.00;13.05;;;;;;;0.19;79.21;101585.02;1740800;80;21171;-77
2020/12/18 09:46:23;;;;;;;18.82;14.35;;;;;;;0.18;79.17;101585.90;1754399;80;21579;-78
2020/12/18 09:48:50;;;;;;;14.65;12.25;;;;;;;0.14;79.02;101589.45;1747877;81;22069;-77
2020/12/18 09:51:19;;;;;;;20.82;16.55;;;;;;;0.09;79.01;101582.16;1733224;81;21181;-81
2020/12/18 09:53:48;;;;;;;16.27;11.88;;;;;;;0.08;79.01;101582.59;1733436;81;21120;-77
2020/12/18 09:56:17;;;;;;;18.52;13.55;;;;;;;0.10;79.08;101583.90;1752729;81;21507;-76
2020/12/18 09:58:45;;;;;;;20.17;15.43;;;;;;;0.11;79.10;101585.16;1728857;81;21128;-77
2020/12/18 10:01:17;;;;;;;19.42;14.87;;;;;;;0.12;79.09;101580.38;1749831;80;22078;-74
2020/12/18 10:03:46;;;;;;;17.85;13.88;;;;;;;0.13;79.11;101579.50;1755354;80;21093;-75
2020/12/18 10:06:14;;;;;;;19.98;15.00;;;;;;;0.12;79.12;101572.59;1755760;80;21088;-76
2020/12/18 10:08:43;;;;;;;21.60;16.40;;;;;;;0.11;79.13;101566.98;1751894;79;21105;-76
2020/12/18 10:11:12;;;;;;;21.35;16.00;;;;;;;0.11;79.16;101566.13;1733930;81;21504;-75
2020/12/18 10:13:40;;;;;;;20.48;15.23;;;;;;;0.12;79.18;101566.09;1725088;83;21555;-75
2020/12/18 10:16:08;;;;;;;18.95;14.47;;;;;;;0.13;79.19;101553.96;1710784;83;21085;-74
2020/12/18 10:18:36;;;;;;;20.15;16.15;;;;;;;0.17;79.20;101555.61;1729017;81;21078;-75
2020/12/18 10:21:04;;;;;;;21.05;16.25;;;;;;;0.16;79.10;101556.50;1713093;81;21037;-76
2020/12/18 10:23:32;;;;;;;20.97;16.40;;;;;;;0.13;79.03;101553.96;1756363;81;21140;-75
2020/12/18 10:25:59;;;;;;;19.98;16.10;;;;;;;0.14;79.04;101558.27;1746725;81;23124;-76
2020/12/18 10:28:27;;;;;;;20.72;16.27;;;;;;;0.14;79.00;101562.16;1748950;80;21277;-75
2020/12/18 10:30:55;;;;;;;18.25;14.07;;;;;;;0.12;78.94;101554.84;1734798;82;21060;-78
2020/12/18 10:33:23;;;;;;;19.75;15.50;;;;;;;0.11;78.87;101551.84;1741415;81;21164;-69
2020/12/18 10:35:51;;;;;;;17.70;13.35;;;;;;;0.08;78.84;101553.17;1735892;80;21116;-72
2020/12/18 10:38:20;;;;;;;17.80;13.55;;;;;;;0.07;78.89;101550.16;1728759;82;22768;-75
2020/12/18 10:40:48;;;;;;;21.60;16.45;;;;;;;0.08;78.93;101550.12;1737019;81;21122;-72
2020/12/18 10:43:16;;;;;;;18.15;13.45;;;;;;;0.06;78.87;101546.70;1748504;81;21415;-76
2020/12/18 10:45:44;;;;;;;22.22;16.55;;;;;;;0.07;78.88;101546.27;1745609;81;22410;-75
2020/12/18 10:48:12;;;;;;;19.77;15.08;;;;;;;0.07;78.88;101543.66;1728342;81;21152;-80
2020/12/18 10:50:40;;;;;;;22.27;16.70;;;;;;;0.08;78.91;101544.08;1736006;80;22194;-77
2020/12/18 10:53:08;;;;;;;24.82;19.05;;;;;;;0.06;78.90;101544.55;1741053;82;21073;-78
2020/12/18 10:55:37;;;;;;;45.55;34.83;;;;;;;0.07;78.93;101541.06;1743343;81;21049;-77
2020/12/18 10:58:06;;;;;;;28.10;22.55;;;;;;;0.06;78.94;101539.36;1748916;80;21172;-77
2020/12/18 11:00:34;;;;;;;17.80;13.78;;;;;;;0.03;78.96;101538.13;1740113;82;21060;-80
2020/12/18 11:03:02;;;;;;;20.37;15.78;;;;;;;0.05;79.01;101541.55;1744115;81;21890;-77
2020/12/18 11:05:31;;;;;;;16.80;12.53;;;;;;;0.05;79.02;101538.95;1743337;82;21189;-75
2020/12/18 11:07:59;;;;;;;29.27;22.55;;;;;;;0.06;78.97;101536.31;1736573;81;21161;-76
2020/12/18 11:10:26;;;;;;;22.95;18.35;;;;;;;0.07;78.92;101538.03;1734673;81;21086;-72
2020/12/18 11:12:54;;;;;;;40.17;29.87;;;;;;;0.05;78.86;101541.09;1726230;82;21133;-76
2020/12/18 11:15:22;;;;;;;36.53;29.42;;;;;;;0.04;78.92;101534.19;1746209;82;22072;-75
2020/12/18 11:17:50;;;;;;;20.25;16.75;;;;;;;0.06;78.96;101539.36;1749301;81;21199;-76
2020/12/18 11:20:18;;;;;;;17.37;12.35;;;;;;;0.06;78.90;101541.52;1749910;81;21215;-75
2020/12/18 11:22:45;;;;;;;22.67;16.45;;;;;;;0.07;78.91;101538.47;1750518;81;21654;-74
2020/12/18 11:25:13;;;;;;;26.97;19.57;;;;;;;0.05;78.87;101542.40;1750352;80;21000;-76
2020/12/18 11:27:40;;;;;;;15.48;12.20;;;;;;;0.06;78.90;101540.66;1763181;81;22059;-78
2020/12/18 11:30:08;;;;;;;40.55;30.62;;;;;;;0.07;78.89;101541.06;1750613;80;21222;-74
2020/12/18 11:32:36;;;;;;;23.80;17.12;;;;;;;0.06;78.84;101538.91;1751282;81;21073;-76
2020/12/18 11:35:04;;;;;;;19.48;16.05;;;;;;;0.07;78.91;101536.73;1752239;82;21065;-78
2020/12/18 11:37:32;;;;;;;21.55;16.48;;;;;;;0.06;78.87;101540.21;1752448;82;21122;-79
2020/12/18 11:40:00;;;;;;;25.27;18.82;;;;;;;0.05;78.87;101530.71;1752493;82;22113;-80